sensor_id;sensor_type;location;lat;lon;timestamp;temperature;humidity
4856;DHT22;2442;48.676;7.986;2022-11-15T00:00:29;9.00;99.90
4856;DHT22;2442;48.676;7.986;2022-11-15T00:02:56;9.10;99.90
4856;DHT22;2442;48.676;7.986;2022-11-15T00:05:23;9.10;99.90
4856;DHT22;2442;48.676;7.986;2022-11-15T00:07:50;9.00;99.90
4856;DHT22;2442;48.676;7.986;2022-11-15T00:10:18;9.00;99.90
4856;DHT22;2442;48.676;7.986;2022-11-15T00:12:45;9.00;99.90
4856;DHT22;2442;48.676;7.986;2022-11-15T00:15:12;9.00;99.90
4856;DHT22;2442;48.676;7.986;2022-11-15T00:17:39;8.90;99.90
4856;DHT22;2442;48.676;7.986;2022-11-15T00:20:07;8.90;99.90
4856;DHT22;2442;48.676;7.986;2022-11-15T00:22:34;8.80;99.90
4856;DHT22;2442;48.676;7.986;2022-11-15T00:25:01;8.80;99.90
4856;DHT22;2442;48.676;7.986;2022-11-15T00:27:30;8.70;99.90
4856;DHT22;2442;48.676;7.986;2022-11-15T00:29:57;8.50;99.90
4856;DHT22;2442;48.676;7.986;2022-11-15T00:32:23;8.50;99.90
4856;DHT22;2442;48.676;7.986;2022-11-15T00:34:50;8.40;99.90
4856;DHT22;2442;48.676;7.986;2022-11-15T00:37:17;8.30;99.90
4856;DHT22;2442;48.676;7.986;2022-11-15T00:39:44;8.30;99.90
4856;DHT22;2442;48.676;7.986;2022-11-15T00:42:11;8.20;99.90
4856;DHT22;2442;48.676;7.986;2022-11-15T00:44:39;8.30;99.90
4856;DHT22;2442;48.676;7.986;2022-11-15T00:47:06;8.30;99.90
4856;DHT22;2442;48.676;7.986;2022-11-15T00:49:33;8.30;99.90
4856;DHT22;2442;48.676;7.986;2022-11-15T00:51:59;8.30;99.90
4856;DHT22;2442;48.676;7.986;2022-11-15T00:54:26;8.40;99.90
4856;DHT22;2442;48.676;7.986;2022-11-15T00:56:53;8.50;99.90
4856;DHT22;2442;48.676;7.986;2022-11-15T00:59:20;8.50;99.90
4856;DHT22;2442;48.676;7.986;2022-11-15T01:01:48;8.60;99.90
4856;DHT22;2442;48.676;7.986;2022-11-15T01:04:15;8.60;99.90
4856;DHT22;2442;48.676;7.986;2022-11-15T01:06:42;8.70;99.90
4856;DHT22;2442;48.676;7.986;2022-11-15T01:09:09;8.70;99.90
4856;DHT22;2442;48.676;7.986;2022-11-15T01:11:36;8.80;99.90
4856;DHT22;2442;48.676;7.986;2022-11-15T01:14:03;8.80;99.90
4856;DHT22;2442;48.676;7.986;2022-11-15T01:16:29;9.00;99.90
4856;DHT22;2442;48.676;7.986;2022-11-15T01:18:59;9.20;99.90
4856;DHT22;2442;48.676;7.986;2022-11-15T01:21:26;9.30;99.90
4856;DHT22;2442;48.676;7.986;2022-11-15T01:23:53;9.20;99.90
4856;DHT22;2442;48.676;7.986;2022-11-15T01:26:21;9.20;99.90
4856;DHT22;2442;48.676;7.986;2022-11-15T01:28:48;9.20;99.90
4856;DHT22;2442;48.676;7.986;2022-11-15T01:31:18;9.30;99.90
4856;DHT22;2442;48.676;7.986;2022-11-15T01:33:45;9.30;99.90
4856;DHT22;2442;48.676;7.986;2022-11-15T01:36:16;9.30;99.90
4856;DHT22;2442;48.676;7.986;2022-11-15T01:38:43;9.30;99.90
4856;DHT22;2442;48.676;7.986;2022-11-15T01:41:15;9.30;99.90
4856;DHT22;2442;48.676;7.986;2022-11-15T01:43:43;9.30;99.90
4856;DHT22;2442;48.676;7.986;2022-11-15T01:46:21;9.30;99.90
4856;DHT22;2442;48.676;7.986;2022-11-15T01:48:50;9.40;99.90
4856;DHT22;2442;48.676;7.986;2022-11-15T01:51:20;9.40;99.90
4856;DHT22;2442;48.676;7.986;2022-11-15T01:53:52;9.40;99.90
4856;DHT22;2442;48.676;7.986;2022-11-15T01:56:22;9.40;99.90
4856;DHT22;2442;48.676;7.986;2022-11-15T01:58:51;9.40;99.90
4856;DHT22;2442;48.676;7.986;2022-11-15T02:01:18;9.50;99.90
4856;DHT22;2442;48.676;7.986;2022-11-15T02:03:50;9.60;99.90
4856;DHT22;2442;48.676;7.986;2022-11-15T02:06:20;9.60;99.90
4856;DHT22;2442;48.676;7.986;2022-11-15T02:08:49;9.40;99.90
4856;DHT22;2442;48.676;7.986;2022-11-15T02:11:16;9.30;99.90
4856;DHT22;2442;48.676;7.986;2022-11-15T02:13:43;9.20;99.90
4856;DHT22;2442;48.676;7.986;2022-11-15T02:16:16;9.10;99.90
4856;DHT22;2442;48.676;7.986;2022-11-15T02:18:49;9.10;99.90
4856;DHT22;2442;48.676;7.986;2022-11-15T02:21:26;9.10;99.90
4856;DHT22;2442;48.676;7.986;2022-11-15T02:24:23;9.20;99.90
4856;DHT22;2442;48.676;7.986;2022-11-15T02:27:21;9.20;99.90
4856;DHT22;2442;48.676;7.986;2022-11-15T02:30:22;9.10;99.90
4856;DHT22;2442;48.676;7.986;2022-11-15T02:32:52;9.20;99.90
4856;DHT22;2442;48.676;7.986;2022-11-15T02:35:28;9.30;99.90
4856;DHT22;2442;48.676;7.986;2022-11-15T02:37:58;9.30;99.90
4856;DHT22;2442;48.676;7.986;2022-11-15T02:40:38;9.30;99.90
4856;DHT22;2442;48.676;7.986;2022-11-15T02:43:09;9.40;99.90
4856;DHT22;2442;48.676;7.986;2022-11-15T02:46:00;9.60;99.90
4856;DHT22;2442;48.676;7.986;2022-11-15T02:48:28;9.60;99.90
4856;DHT22;2442;48.676;7.986;2022-11-15T02:50:56;9.60;99.90
4856;DHT22;2442;48.676;7.986;2022-11-15T02:53:24;9.60;99.90
4856;DHT22;2442;48.676;7.986;2022-11-15T02:55:52;9.60;99.90
4856;DHT22;2442;48.676;7.986;2022-11-15T02:58:38;9.60;99.90
4856;DHT22;2442;48.676;7.986;2022-11-15T03:01:18;9.50;99.90
4856;DHT22;2442;48.676;7.986;2022-11-15T03:03:58;9.60;99.90
4856;DHT22;2442;48.676;7.986;2022-11-15T03:06:34;9.90;99.90
4856;DHT22;2442;48.676;7.986;2022-11-15T03:09:04;10.00;99.90
4856;DHT22;2442;48.676;7.986;2022-11-15T03:11:36;10.00;99.90
4856;DHT22;2442;48.676;7.986;2022-11-15T03:14:11;10.00;99.90
4856;DHT22;2442;48.676;7.986;2022-11-15T03:16:46;10.00;99.90
4856;DHT22;2442;48.676;7.986;2022-11-15T03:19:17;10.00;99.90
4856;DHT22;2442;48.676;7.986;2022-11-15T03:21:47;10.20;99.90
4856;DHT22;2442;48.676;7.986;2022-11-15T03:24:16;10.20;99.90
4856;DHT22;2442;48.676;7.986;2022-11-15T03:26:48;10.10;99.90
4856;DHT22;2442;48.676;7.986;2022-11-15T03:29:19;10.00;99.90
4856;DHT22;2442;48.676;7.986;2022-11-15T03:31:52;10.10;99.90
4856;DHT22;2442;48.676;7.986;2022-11-15T03:34:27;10.00;99.90
4856;DHT22;2442;48.676;7.986;2022-11-15T03:36:55;10.10;99.90
4856;DHT22;2442;48.676;7.986;2022-11-15T03:39:23;10.10;99.90
4856;DHT22;2442;48.676;7.986;2022-11-15T03:41:59;10.10;99.90
4856;DHT22;2442;48.676;7.986;2022-11-15T03:44:36;10.00;99.90
4856;DHT22;2442;48.676;7.986;2022-11-15T03:47:10;10.00;99.90
4856;DHT22;2442;48.676;7.986;2022-11-15T03:49:42;10.00;99.90
4856;DHT22;2442;48.676;7.986;2022-11-15T03:52:11;10.00;99.90
4856;DHT22;2442;48.676;7.986;2022-11-15T03:54:48;10.10;99.90
4856;DHT22;2442;48.676;7.986;2022-11-15T03:57:16;10.20;99.90
4856;DHT22;2442;48.676;7.986;2022-11-15T03:59:42;10.10;99.90
4856;DHT22;2442;48.676;7.986;2022-11-15T04:02:11;10.20;99.90
4856;DHT22;2442;48.676;7.986;2022-11-15T04:04:38;10.20;99.90
4856;DHT22;2442;48.676;7.986;2022-11-15T04:07:05;10.20;99.90
4856;DHT22;2442;48.676;7.986;2022-11-15T04:09:32;10.20;99.90
4856;DHT22;2442;48.676;7.986;2022-11-15T04:11:59;10.20;99.90
4856;DHT22;2442;48.676;7.986;2022-11-15T04:14:25;10.20;99.90
4856;DHT22;2442;48.676;7.986;2022-11-15T04:16:52;10.20;99.90
4856;DHT22;2442;48.676;7.986;2022-11-15T04:19:21;10.20;99.90
4856;DHT22;2442;48.676;7.986;2022-11-15T04:22:07;10.20;99.90
4856;DHT22;2442;48.676;7.986;2022-11-15T04:24:51;10.10;99.90
4856;DHT22;2442;48.676;7.986;2022-11-15T04:27:18;10.10;99.90
4856;DHT22;2442;48.676;7.986;2022-11-15T04:29:45;10.20;99.90
4856;DHT22;2442;48.676;7.986;2022-11-15T04:32:12;10.10;99.90
4856;DHT22;2442;48.676;7.986;2022-11-15T04:34:40;10.10;99.90
4856;DHT22;2442;48.676;7.986;2022-11-15T04:37:07;10.10;99.90
4856;DHT22;2442;48.676;7.986;2022-11-15T04:39:42;10.10;99.90
4856;DHT22;2442;48.676;7.986;2022-11-15T04:42:09;10.10;99.90
4856;DHT22;2442;48.676;7.986;2022-11-15T04:44:37;10.20;99.90
4856;DHT22;2442;48.676;7.986;2022-11-15T04:47:04;10.20;99.90
4856;DHT22;2442;48.676;7.986;2022-11-15T04:49:31;10.30;99.90
4856;DHT22;2442;48.676;7.986;2022-11-15T04:51:59;10.40;99.90
4856;DHT22;2442;48.676;7.986;2022-11-15T04:54:26;10.40;99.90
4856;DHT22;2442;48.676;7.986;2022-11-15T04:56:53;10.40;99.90
4856;DHT22;2442;48.676;7.986;2022-11-15T04:59:20;10.50;99.90
4856;DHT22;2442;48.676;7.986;2022-11-15T05:01:47;10.50;99.90
4856;DHT22;2442;48.676;7.986;2022-11-15T05:04:14;10.50;99.90
4856;DHT22;2442;48.676;7.986;2022-11-15T05:06:47;10.50;99.90
4856;DHT22;2442;48.676;7.986;2022-11-15T05:09:15;10.50;99.90
4856;DHT22;2442;48.676;7.986;2022-11-15T05:11:42;10.50;99.90
4856;DHT22;2442;48.676;7.986;2022-11-15T05:14:09;10.50;99.90
4856;DHT22;2442;48.676;7.986;2022-11-15T05:16:36;10.50;99.90
4856;DHT22;2442;48.676;7.986;2022-11-15T05:19:03;10.40;99.90
4856;DHT22;2442;48.676;7.986;2022-11-15T05:21:30;10.40;99.90
4856;DHT22;2442;48.676;7.986;2022-11-15T05:23:57;10.60;99.90
4856;DHT22;2442;48.676;7.986;2022-11-15T05:26:26;10.60;99.90
4856;DHT22;2442;48.676;7.986;2022-11-15T05:28:53;10.50;99.90
4856;DHT22;2442;48.676;7.986;2022-11-15T05:31:21;10.40;99.90
4856;DHT22;2442;48.676;7.986;2022-11-15T05:33:49;10.40;99.90
4856;DHT22;2442;48.676;7.986;2022-11-15T05:36:20;10.30;99.90
4856;DHT22;2442;48.676;7.986;2022-11-15T05:38:48;10.40;99.90
4856;DHT22;2442;48.676;7.986;2022-11-15T05:41:17;10.40;99.90
4856;DHT22;2442;48.676;7.986;2022-11-15T05:43:49;10.30;99.90
4856;DHT22;2442;48.676;7.986;2022-11-15T05:46:17;10.20;99.90
4856;DHT22;2442;48.676;7.986;2022-11-15T05:48:48;10.20;99.90
4856;DHT22;2442;48.676;7.986;2022-11-15T05:51:16;10.30;99.90
4856;DHT22;2442;48.676;7.986;2022-11-15T05:53:44;10.30;99.90
4856;DHT22;2442;48.676;7.986;2022-11-15T05:56:12;10.50;99.90
4856;DHT22;2442;48.676;7.986;2022-11-15T05:58:41;10.50;99.90
4856;DHT22;2442;48.676;7.986;2022-11-15T06:01:09;10.60;99.90
4856;DHT22;2442;48.676;7.986;2022-11-15T06:03:36;10.70;99.90
4856;DHT22;2442;48.676;7.986;2022-11-15T06:06:03;10.70;99.90
4856;DHT22;2442;48.676;7.986;2022-11-15T06:08:30;10.90;99.90
4856;DHT22;2442;48.676;7.986;2022-11-15T06:11:03;10.90;99.90
4856;DHT22;2442;48.676;7.986;2022-11-15T06:13:30;10.90;99.90
4856;DHT22;2442;48.676;7.986;2022-11-15T06:15:57;11.00;99.90
4856;DHT22;2442;48.676;7.986;2022-11-15T06:18:26;11.00;99.90
4856;DHT22;2442;48.676;7.986;2022-11-15T06:20:53;11.10;99.90
4856;DHT22;2442;48.676;7.986;2022-11-15T06:23:20;11.00;99.90
4856;DHT22;2442;48.676;7.986;2022-11-15T06:25:46;11.00;99.90
4856;DHT22;2442;48.676;7.986;2022-11-15T06:28:13;11.10;99.90
4856;DHT22;2442;48.676;7.986;2022-11-15T06:30:40;11.10;99.90
4856;DHT22;2442;48.676;7.986;2022-11-15T06:33:07;11.00;99.90
4856;DHT22;2442;48.676;7.986;2022-11-15T06:35:37;11.10;99.90
4856;DHT22;2442;48.676;7.986;2022-11-15T06:38:05;11.20;99.90
4856;DHT22;2442;48.676;7.986;2022-11-15T06:40:33;11.10;99.90
4856;DHT22;2442;48.676;7.986;2022-11-15T06:43:01;11.00;99.90
4856;DHT22;2442;48.676;7.986;2022-11-15T06:45:28;11.00;99.90
4856;DHT22;2442;48.676;7.986;2022-11-15T06:47:55;11.00;99.90
4856;DHT22;2442;48.676;7.986;2022-11-15T06:50:22;11.00;99.90
4856;DHT22;2442;48.676;7.986;2022-11-15T06:52:51;11.00;99.90
4856;DHT22;2442;48.676;7.986;2022-11-15T06:55:18;10.80;99.90
4856;DHT22;2442;48.676;7.986;2022-11-15T06:57:48;10.80;99.90
4856;DHT22;2442;48.676;7.986;2022-11-15T07:00:17;10.80;99.90
4856;DHT22;2442;48.676;7.986;2022-11-15T07:02:44;10.70;99.90
4856;DHT22;2442;48.676;7.986;2022-11-15T07:05:11;10.70;99.90
4856;DHT22;2442;48.676;7.986;2022-11-15T07:07:38;10.70;99.90
4856;DHT22;2442;48.676;7.986;2022-11-15T07:10:08;10.70;99.90
4856;DHT22;2442;48.676;7.986;2022-11-15T07:12:35;10.70;99.90
4856;DHT22;2442;48.676;7.986;2022-11-15T07:15:02;10.70;99.90
4856;DHT22;2442;48.676;7.986;2022-11-15T07:17:29;10.70;99.90
4856;DHT22;2442;48.676;7.986;2022-11-15T07:19:56;10.70;99.90
4856;DHT22;2442;48.676;7.986;2022-11-15T07:22:23;10.70;99.90
4856;DHT22;2442;48.676;7.986;2022-11-15T07:24:50;10.70;99.90
4856;DHT22;2442;48.676;7.986;2022-11-15T07:27:18;10.70;99.90
4856;DHT22;2442;48.676;7.986;2022-11-15T07:29:45;10.70;99.90
4856;DHT22;2442;48.676;7.986;2022-11-15T07:32:12;10.80;99.90
4856;DHT22;2442;48.676;7.986;2022-11-15T07:34:39;10.80;99.90
4856;DHT22;2442;48.676;7.986;2022-11-15T07:37:06;10.80;99.90
4856;DHT22;2442;48.676;7.986;2022-11-15T07:39:33;10.80;99.90
4856;DHT22;2442;48.676;7.986;2022-11-15T07:42:00;10.80;99.90
4856;DHT22;2442;48.676;7.986;2022-11-15T07:44:45;10.80;99.90
4856;DHT22;2442;48.676;7.986;2022-11-15T07:47:12;10.90;99.90
4856;DHT22;2442;48.676;7.986;2022-11-15T07:49:39;10.90;99.90
4856;DHT22;2442;48.676;7.986;2022-11-15T07:52:06;10.80;99.90
4856;DHT22;2442;48.676;7.986;2022-11-15T07:54:33;10.80;99.90
4856;DHT22;2442;48.676;7.986;2022-11-15T07:57:00;10.90;99.90
4856;DHT22;2442;48.676;7.986;2022-11-15T07:59:26;11.00;99.90
4856;DHT22;2442;48.676;7.986;2022-11-15T08:01:55;11.00;99.90
4856;DHT22;2442;48.676;7.986;2022-11-15T08:04:22;11.10;99.90
4856;DHT22;2442;48.676;7.986;2022-11-15T08:06:48;11.00;99.90
4856;DHT22;2442;48.676;7.986;2022-11-15T08:09:15;10.90;99.90
4856;DHT22;2442;48.676;7.986;2022-11-15T08:11:42;10.90;99.90
4856;DHT22;2442;48.676;7.986;2022-11-15T08:14:09;10.80;99.90
4856;DHT22;2442;48.676;7.986;2022-11-15T08:16:36;10.90;99.90
4856;DHT22;2442;48.676;7.986;2022-11-15T08:19:04;10.90;99.90
4856;DHT22;2442;48.676;7.986;2022-11-15T08:21:31;10.80;99.90
4856;DHT22;2442;48.676;7.986;2022-11-15T08:23:58;10.80;99.90
4856;DHT22;2442;48.676;7.986;2022-11-15T08:26:25;10.80;99.90
4856;DHT22;2442;48.676;7.986;2022-11-15T08:28:54;10.70;99.90
4856;DHT22;2442;48.676;7.986;2022-11-15T08:31:21;10.60;99.90
4856;DHT22;2442;48.676;7.986;2022-11-15T08:33:48;10.60;99.90
4856;DHT22;2442;48.676;7.986;2022-11-15T08:36:17;10.60;99.90
4856;DHT22;2442;48.676;7.986;2022-11-15T08:38:43;10.60;99.90
4856;DHT22;2442;48.676;7.986;2022-11-15T08:41:13;10.60;99.90
4856;DHT22;2442;48.676;7.986;2022-11-15T08:43:40;10.70;99.90
4856;DHT22;2442;48.676;7.986;2022-11-15T08:46:10;10.80;99.90
4856;DHT22;2442;48.676;7.986;2022-11-15T08:48:38;10.70;99.90
4856;DHT22;2442;48.676;7.986;2022-11-15T08:51:05;10.70;99.90
4856;DHT22;2442;48.676;7.986;2022-11-15T08:53:33;10.80;99.90
4856;DHT22;2442;48.676;7.986;2022-11-15T08:56:01;10.80;99.90
4856;DHT22;2442;48.676;7.986;2022-11-15T08:58:28;10.90;99.90
4856;DHT22;2442;48.676;7.986;2022-11-15T09:00:55;10.90;99.90
4856;DHT22;2442;48.676;7.986;2022-11-15T09:03:22;11.20;99.90
4856;DHT22;2442;48.676;7.986;2022-11-15T09:05:48;11.00;99.90
4856;DHT22;2442;48.676;7.986;2022-11-15T09:08:20;11.00;99.90
4856;DHT22;2442;48.676;7.986;2022-11-15T09:10:48;11.00;99.90
4856;DHT22;2442;48.676;7.986;2022-11-15T09:13:15;11.00;99.90
4856;DHT22;2442;48.676;7.986;2022-11-15T09:15:42;11.10;99.90
4856;DHT22;2442;48.676;7.986;2022-11-15T09:18:08;11.20;99.90
4856;DHT22;2442;48.676;7.986;2022-11-15T09:20:35;11.20;99.90
4856;DHT22;2442;48.676;7.986;2022-11-15T09:23:04;11.30;99.90
4856;DHT22;2442;48.676;7.986;2022-11-15T09:25:31;11.40;99.90
4856;DHT22;2442;48.676;7.986;2022-11-15T09:27:59;11.40;99.90
4856;DHT22;2442;48.676;7.986;2022-11-15T09:30:26;11.60;99.90
4856;DHT22;2442;48.676;7.986;2022-11-15T09:32:53;11.60;99.90
4856;DHT22;2442;48.676;7.986;2022-11-15T09:35:20;11.70;99.90
4856;DHT22;2442;48.676;7.986;2022-11-15T09:37:47;11.70;99.90
4856;DHT22;2442;48.676;7.986;2022-11-15T09:40:15;11.80;99.90
4856;DHT22;2442;48.676;7.986;2022-11-15T09:43:04;11.80;99.90
4856;DHT22;2442;48.676;7.986;2022-11-15T09:45:37;11.70;99.90
4856;DHT22;2442;48.676;7.986;2022-11-15T09:48:33;11.70;99.90
4856;DHT22;2442;48.676;7.986;2022-11-15T09:51:04;11.60;99.90
4856;DHT22;2442;48.676;7.986;2022-11-15T09:53:39;11.60;99.90
4856;DHT22;2442;48.676;7.986;2022-11-15T09:56:14;11.60;99.90
4856;DHT22;2442;48.676;7.986;2022-11-15T09:58:53;11.60;99.90
4856;DHT22;2442;48.676;7.986;2022-11-15T10:01:34;11.50;99.90
4856;DHT22;2442;48.676;7.986;2022-11-15T10:04:03;11.60;99.90
4856;DHT22;2442;48.676;7.986;2022-11-15T10:06:31;11.60;99.90
4856;DHT22;2442;48.676;7.986;2022-11-15T10:09:06;11.50;99.90
4856;DHT22;2442;48.676;7.986;2022-11-15T10:11:35;11.70;99.90
4856;DHT22;2442;48.676;7.986;2022-11-15T10:14:10;11.80;99.90
4856;DHT22;2442;48.676;7.986;2022-11-15T10:20:03;11.80;99.90
4856;DHT22;2442;48.676;7.986;2022-11-15T10:22:38;11.80;99.90
4856;DHT22;2442;48.676;7.986;2022-11-15T10:25:30;11.90;99.90
4856;DHT22;2442;48.676;7.986;2022-11-15T10:28:01;11.90;99.90
4856;DHT22;2442;48.676;7.986;2022-11-15T10:30:36;11.90;99.90
4856;DHT22;2442;48.676;7.986;2022-11-15T10:33:20;11.90;99.90
4856;DHT22;2442;48.676;7.986;2022-11-15T10:35:49;12.00;99.90
4856;DHT22;2442;48.676;7.986;2022-11-15T10:38:54;12.00;99.90
4856;DHT22;2442;48.676;7.986;2022-11-15T10:41:27;12.10;99.90
4856;DHT22;2442;48.676;7.986;2022-11-15T10:50:02;12.50;99.90
4856;DHT22;2442;48.676;7.986;2022-11-15T10:52:30;12.60;99.90
4856;DHT22;2442;48.676;7.986;2022-11-15T10:55:03;12.70;99.90
4856;DHT22;2442;48.676;7.986;2022-11-15T10:57:33;12.70;99.90
4856;DHT22;2442;48.676;7.986;2022-11-15T11:00:04;12.70;99.90
4856;DHT22;2442;48.676;7.986;2022-11-15T11:02:34;12.80;99.90
4856;DHT22;2442;48.676;7.986;2022-11-15T11:05:04;12.90;99.90
4856;DHT22;2442;48.676;7.986;2022-11-15T11:07:33;12.90;99.90
4856;DHT22;2442;48.676;7.986;2022-11-15T11:10:04;13.00;99.90
4856;DHT22;2442;48.676;7.986;2022-11-15T11:12:33;13.10;99.90
4856;DHT22;2442;48.676;7.986;2022-11-15T11:15:08;13.10;99.90
4856;DHT22;2442;48.676;7.986;2022-11-15T11:17:50;13.10;99.90
4856;DHT22;2442;48.676;7.986;2022-11-15T11:20:22;13.20;99.90
4856;DHT22;2442;48.676;7.986;2022-11-15T11:23:06;13.10;99.90
4856;DHT22;2442;48.676;7.986;2022-11-15T11:25:46;13.20;99.90
4856;DHT22;2442;48.676;7.986;2022-11-15T11:28:25;13.20;99.90
4856;DHT22;2442;48.676;7.986;2022-11-15T11:31:05;13.20;99.90
4856;DHT22;2442;48.676;7.986;2022-11-15T11:33:42;13.30;99.90
4856;DHT22;2442;48.676;7.986;2022-11-15T11:36:19;13.30;99.90
4856;DHT22;2442;48.676;7.986;2022-11-15T11:38:58;13.40;99.90
4856;DHT22;2442;48.676;7.986;2022-11-15T11:41:53;13.40;99.90
4856;DHT22;2442;48.676;7.986;2022-11-15T11:44:32;13.40;99.90
4856;DHT22;2442;48.676;7.986;2022-11-15T11:47:01;13.30;99.90
4856;DHT22;2442;48.676;7.986;2022-11-15T11:52:09;13.40;99.90
4856;DHT22;2442;48.676;7.986;2022-11-15T11:54:43;13.40;99.90
4856;DHT22;2442;48.676;7.986;2022-11-15T11:57:20;13.30;99.90
4856;DHT22;2442;48.676;7.986;2022-11-15T11:59:51;13.40;99.90
4856;DHT22;2442;48.676;7.986;2022-11-15T12:02:26;13.30;99.90
4856;DHT22;2442;48.676;7.986;2022-11-15T12:05:12;13.30;99.90
4856;DHT22;2442;48.676;7.986;2022-11-15T12:07:41;13.40;99.90
4856;DHT22;2442;48.676;7.986;2022-11-15T12:10:19;13.40;99.90
4856;DHT22;2442;48.676;7.986;2022-11-15T12:12:55;13.50;99.90
4856;DHT22;2442;48.676;7.986;2022-11-15T12:15:28;13.50;99.90
4856;DHT22;2442;48.676;7.986;2022-11-15T12:17:59;13.60;99.90
4856;DHT22;2442;48.676;7.986;2022-11-15T12:20:28;13.70;99.90
4856;DHT22;2442;48.676;7.986;2022-11-15T12:22:59;13.70;99.90
4856;DHT22;2442;48.676;7.986;2022-11-15T12:25:31;13.70;99.90
4856;DHT22;2442;48.676;7.986;2022-11-15T12:28:06;13.80;99.90
4856;DHT22;2442;48.676;7.986;2022-11-15T12:30:43;13.90;99.90
4856;DHT22;2442;48.676;7.986;2022-11-15T12:33:32;13.90;99.90
4856;DHT22;2442;48.676;7.986;2022-11-15T12:36:03;14.00;99.90
4856;DHT22;2442;48.676;7.986;2022-11-15T12:38:57;13.80;99.90
4856;DHT22;2442;48.676;7.986;2022-11-15T12:41:26;13.80;99.90
4856;DHT22;2442;48.676;7.986;2022-11-15T12:43:55;13.90;99.90
4856;DHT22;2442;48.676;7.986;2022-11-15T12:46:59;13.70;99.90
4856;DHT22;2442;48.676;7.986;2022-11-15T12:49:46;13.80;99.90
4856;DHT22;2442;48.676;7.986;2022-11-15T12:52:12;13.80;99.90
4856;DHT22;2442;48.676;7.986;2022-11-15T12:55:01;13.90;99.90
4856;DHT22;2442;48.676;7.986;2022-11-15T12:57:39;14.00;99.90
4856;DHT22;2442;48.676;7.986;2022-11-15T13:03:24;14.10;99.90
4856;DHT22;2442;48.676;7.986;2022-11-15T13:05:59;14.20;99.90
4856;DHT22;2442;48.676;7.986;2022-11-15T13:08:46;14.30;99.90
4856;DHT22;2442;48.676;7.986;2022-11-15T13:11:48;14.20;99.90
4856;DHT22;2442;48.676;7.986;2022-11-15T13:14:45;14.40;99.90
4856;DHT22;2442;48.676;7.986;2022-11-15T13:17:27;14.40;99.90
4856;DHT22;2442;48.676;7.986;2022-11-15T13:20:16;14.50;99.90
4856;DHT22;2442;48.676;7.986;2022-11-15T13:22:45;14.40;99.90
4856;DHT22;2442;48.676;7.986;2022-11-15T13:25:27;13.90;99.90
4856;DHT22;2442;48.676;7.986;2022-11-15T13:27:57;14.00;99.90
4856;DHT22;2442;48.676;7.986;2022-11-15T13:30:26;13.90;99.90
4856;DHT22;2442;48.676;7.986;2022-11-15T13:32:53;13.80;99.90
4856;DHT22;2442;48.676;7.986;2022-11-15T13:35:25;13.70;99.90
4856;DHT22;2442;48.676;7.986;2022-11-15T13:37:54;13.60;99.90
4856;DHT22;2442;48.676;7.986;2022-11-15T13:40:27;13.50;99.90
4856;DHT22;2442;48.676;7.986;2022-11-15T13:42:56;13.30;99.90
4856;DHT22;2442;48.676;7.986;2022-11-15T13:45:24;13.50;99.90
4856;DHT22;2442;48.676;7.986;2022-11-15T13:47:54;13.50;99.90
4856;DHT22;2442;48.676;7.986;2022-11-15T13:50:25;13.50;99.90
4856;DHT22;2442;48.676;7.986;2022-11-15T13:52:57;13.60;99.90
4856;DHT22;2442;48.676;7.986;2022-11-15T13:55:24;13.60;99.90
4856;DHT22;2442;48.676;7.986;2022-11-15T13:57:54;13.60;99.90
4856;DHT22;2442;48.676;7.986;2022-11-15T14:00:32;13.70;99.90
4856;DHT22;2442;48.676;7.986;2022-11-15T14:03:07;13.80;99.90
4856;DHT22;2442;48.676;7.986;2022-11-15T14:05:36;13.60;99.90
4856;DHT22;2442;48.676;7.986;2022-11-15T14:08:20;13.60;99.90
4856;DHT22;2442;48.676;7.986;2022-11-15T14:10:48;13.50;99.90
4856;DHT22;2442;48.676;7.986;2022-11-15T14:13:27;13.60;99.90
4856;DHT22;2442;48.676;7.986;2022-11-15T14:16:12;13.40;99.90
4856;DHT22;2442;48.676;7.986;2022-11-15T14:18:43;13.40;99.90
4856;DHT22;2442;48.676;7.986;2022-11-15T14:21:11;13.30;99.90
4856;DHT22;2442;48.676;7.986;2022-11-15T14:23:38;13.20;99.90
4856;DHT22;2442;48.676;7.986;2022-11-15T14:26:05;13.20;99.90
4856;DHT22;2442;48.676;7.986;2022-11-15T14:28:33;13.10;99.90
4856;DHT22;2442;48.676;7.986;2022-11-15T14:31:11;13.10;99.90
4856;DHT22;2442;48.676;7.986;2022-11-15T14:33:39;13.10;99.90
4856;DHT22;2442;48.676;7.986;2022-11-15T14:36:13;13.20;99.90
4856;DHT22;2442;48.676;7.986;2022-11-15T14:38:41;13.20;99.90
4856;DHT22;2442;48.676;7.986;2022-11-15T14:41:18;13.20;99.90
4856;DHT22;2442;48.676;7.986;2022-11-15T14:43:45;13.30;99.90
4856;DHT22;2442;48.676;7.986;2022-11-15T14:46:12;13.10;99.90
4856;DHT22;2442;48.676;7.986;2022-11-15T14:48:39;13.20;99.90
4856;DHT22;2442;48.676;7.986;2022-11-15T14:51:13;12.90;99.90
4856;DHT22;2442;48.676;7.986;2022-11-15T14:53:40;12.70;99.90
4856;DHT22;2442;48.676;7.986;2022-11-15T14:56:07;12.80;99.90
4856;DHT22;2442;48.676;7.986;2022-11-15T14:58:34;13.00;99.90
4856;DHT22;2442;48.676;7.986;2022-11-15T15:01:02;12.90;99.90
4856;DHT22;2442;48.676;7.986;2022-11-15T15:03:29;12.80;99.90
4856;DHT22;2442;48.676;7.986;2022-11-15T15:05:56;12.70;99.90
4856;DHT22;2442;48.676;7.986;2022-11-15T15:08:24;12.60;99.90
4856;DHT22;2442;48.676;7.986;2022-11-15T15:10:51;12.50;99.90
4856;DHT22;2442;48.676;7.986;2022-11-15T15:13:20;12.50;99.90
4856;DHT22;2442;48.676;7.986;2022-11-15T15:15:48;12.40;99.90
4856;DHT22;2442;48.676;7.986;2022-11-15T15:18:15;12.40;99.90
4856;DHT22;2442;48.676;7.986;2022-11-15T15:20:43;12.70;99.90
4856;DHT22;2442;48.676;7.986;2022-11-15T15:23:15;12.60;99.90
4856;DHT22;2442;48.676;7.986;2022-11-15T15:25:45;12.50;99.90
4856;DHT22;2442;48.676;7.986;2022-11-15T15:28:13;12.60;99.90
4856;DHT22;2442;48.676;7.986;2022-11-15T15:30:40;12.70;99.90
4856;DHT22;2442;48.676;7.986;2022-11-15T15:33:07;12.80;99.90
4856;DHT22;2442;48.676;7.986;2022-11-15T15:35:35;12.70;99.90
4856;DHT22;2442;48.676;7.986;2022-11-15T15:38:02;12.60;99.90
4856;DHT22;2442;48.676;7.986;2022-11-15T15:40:31;12.50;99.90
4856;DHT22;2442;48.676;7.986;2022-11-15T15:43:00;12.40;99.90
4856;DHT22;2442;48.676;7.986;2022-11-15T15:45:27;12.40;99.90
4856;DHT22;2442;48.676;7.986;2022-11-15T15:47:55;12.30;99.90
4856;DHT22;2442;48.676;7.986;2022-11-15T15:50:24;12.20;99.90
4856;DHT22;2442;48.676;7.986;2022-11-15T15:52:53;12.00;99.90
4856;DHT22;2442;48.676;7.986;2022-11-15T15:55:21;11.80;99.90
4856;DHT22;2442;48.676;7.986;2022-11-15T15:57:48;11.70;99.90
4856;DHT22;2442;48.676;7.986;2022-11-15T16:00:17;11.60;99.90
4856;DHT22;2442;48.676;7.986;2022-11-15T16:02:45;11.70;99.90
4856;DHT22;2442;48.676;7.986;2022-11-15T16:05:12;11.70;99.90
4856;DHT22;2442;48.676;7.986;2022-11-15T16:07:39;11.70;99.90
4856;DHT22;2442;48.676;7.986;2022-11-15T16:10:19;11.60;99.90
4856;DHT22;2442;48.676;7.986;2022-11-15T16:12:47;11.60;99.90
4856;DHT22;2442;48.676;7.986;2022-11-15T16:15:16;11.60;99.90
4856;DHT22;2442;48.676;7.986;2022-11-15T16:17:46;11.60;99.90
4856;DHT22;2442;48.676;7.986;2022-11-15T16:20:29;11.50;99.90
4856;DHT22;2442;48.676;7.986;2022-11-15T16:22:56;11.50;99.90
4856;DHT22;2442;48.676;7.986;2022-11-15T16:25:23;11.50;99.90
4856;DHT22;2442;48.676;7.986;2022-11-15T16:27:51;11.50;99.90
4856;DHT22;2442;48.676;7.986;2022-11-15T16:30:21;11.60;99.90
4856;DHT22;2442;48.676;7.986;2022-11-15T16:32:49;11.60;99.90
4856;DHT22;2442;48.676;7.986;2022-11-15T16:35:16;11.60;99.90
4856;DHT22;2442;48.676;7.986;2022-11-15T16:37:43;11.60;99.90
4856;DHT22;2442;48.676;7.986;2022-11-15T16:40:26;11.50;99.90
4856;DHT22;2442;48.676;7.986;2022-11-15T16:42:53;11.50;99.90